sensor_id;sensor_type;location;lat;lon;timestamp;temperature;humidity
59025;DHT22;44806;48.008;13.666;2023-12-20T00:00:21;1.20;99.90
59025;DHT22;44806;48.008;13.666;2023-12-20T00:02:48;1.20;99.90
59025;DHT22;44806;48.008;13.666;2023-12-20T00:05:15;1.20;99.90
59025;DHT22;44806;48.008;13.666;2023-12-20T00:07:42;1.20;99.90
59025;DHT22;44806;48.008;13.666;2023-12-20T00:10:09;1.20;99.90
59025;DHT22;44806;48.008;13.666;2023-12-20T00:12:38;1.30;99.90
59025;DHT22;44806;48.008;13.666;2023-12-20T00:15:06;1.20;99.90
59025;DHT22;44806;48.008;13.666;2023-12-20T00:17:35;1.30;99.90
59025;DHT22;44806;48.008;13.666;2023-12-20T00:20:02;1.30;99.90
59025;DHT22;44806;48.008;13.666;2023-12-20T00:22:29;1.30;99.90
59025;DHT22;44806;48.008;13.666;2023-12-20T00:24:56;1.30;99.90
59025;DHT22;44806;48.008;13.666;2023-12-20T00:27:22;1.30;99.90
59025;DHT22;44806;48.008;13.666;2023-12-20T00:29:49;1.30;99.90
59025;DHT22;44806;48.008;13.666;2023-12-20T00:32:16;1.30;99.90
59025;DHT22;44806;48.008;13.666;2023-12-20T00:34:45;1.40;99.90
59025;DHT22;44806;48.008;13.666;2023-12-20T00:37:12;1.30;99.90
59025;DHT22;44806;48.008;13.666;2023-12-20T00:39:38;1.40;99.90
59025;DHT22;44806;48.008;13.666;2023-12-20T00:42:05;1.40;99.90
59025;DHT22;44806;48.008;13.666;2023-12-20T00:44:32;1.30;99.90
59025;DHT22;44806;48.008;13.666;2023-12-20T00:46:59;1.40;99.90
59025;DHT22;44806;48.008;13.666;2023-12-20T00:49:26;1.40;99.90
59025;DHT22;44806;48.008;13.666;2023-12-20T00:51:55;1.40;99.90
59025;DHT22;44806;48.008;13.666;2023-12-20T00:54:22;1.40;99.90
59025;DHT22;44806;48.008;13.666;2023-12-20T00:56:49;1.40;99.90
59025;DHT22;44806;48.008;13.666;2023-12-20T00:59:17;1.40;99.90
59025;DHT22;44806;48.008;13.666;2023-12-20T01:01:44;1.40;99.90
59025;DHT22;44806;48.008;13.666;2023-12-20T01:04:11;1.40;99.90
59025;DHT22;44806;48.008;13.666;2023-12-20T01:06:38;1.30;99.90
59025;DHT22;44806;48.008;13.666;2023-12-20T01:09:06;1.40;99.90
59025;DHT22;44806;48.008;13.666;2023-12-20T01:11:33;1.40;99.90
59025;DHT22;44806;48.008;13.666;2023-12-20T01:14:00;1.40;99.90
59025;DHT22;44806;48.008;13.666;2023-12-20T01:16:26;1.40;99.90
59025;DHT22;44806;48.008;13.666;2023-12-20T01:18:53;1.40;99.90
59025;DHT22;44806;48.008;13.666;2023-12-20T01:21:20;1.40;99.90
59025;DHT22;44806;48.008;13.666;2023-12-20T01:23:47;1.40;99.90
59025;DHT22;44806;48.008;13.666;2023-12-20T01:26:16;1.40;99.90
59025;DHT22;44806;48.008;13.666;2023-12-20T01:28:43;1.40;99.90
59025;DHT22;44806;48.008;13.666;2023-12-20T01:31:10;1.40;99.90
59025;DHT22;44806;48.008;13.666;2023-12-20T01:33:37;1.40;99.90
59025;DHT22;44806;48.008;13.666;2023-12-20T01:36:04;1.40;99.90
59025;DHT22;44806;48.008;13.666;2023-12-20T01:38:31;1.50;99.90
59025;DHT22;44806;48.008;13.666;2023-12-20T01:40:58;1.50;99.90
59025;DHT22;44806;48.008;13.666;2023-12-20T01:43:27;1.60;99.90
59025;DHT22;44806;48.008;13.666;2023-12-20T01:45:55;1.60;99.90
59025;DHT22;44806;48.008;13.666;2023-12-20T01:48:22;1.70;99.90
59025;DHT22;44806;48.008;13.666;2023-12-20T01:50:49;1.70;99.90
59025;DHT22;44806;48.008;13.666;2023-12-20T01:53:17;1.80;99.90
59025;DHT22;44806;48.008;13.666;2023-12-20T01:55:45;1.90;99.90
59025;DHT22;44806;48.008;13.666;2023-12-20T01:58:14;2.10;99.90
59025;DHT22;44806;48.008;13.666;2023-12-20T02:00:43;2.20;99.90
59025;DHT22;44806;48.008;13.666;2023-12-20T02:03:10;2.40;99.90
59025;DHT22;44806;48.008;13.666;2023-12-20T02:05:38;2.60;99.90
59025;DHT22;44806;48.008;13.666;2023-12-20T02:08:06;2.70;99.90
59025;DHT22;44806;48.008;13.666;2023-12-20T02:10:33;2.90;99.90
59025;DHT22;44806;48.008;13.666;2023-12-20T02:13:00;3.20;99.90
59025;DHT22;44806;48.008;13.666;2023-12-20T02:15:27;3.30;99.90
59025;DHT22;44806;48.008;13.666;2023-12-20T02:17:56;3.60;99.90
59025;DHT22;44806;48.008;13.666;2023-12-20T02:20:23;3.80;99.90
59025;DHT22;44806;48.008;13.666;2023-12-20T02:22:51;3.70;99.90
59025;DHT22;44806;48.008;13.666;2023-12-20T02:25:18;3.70;99.90
59025;DHT22;44806;48.008;13.666;2023-12-20T02:27:45;3.70;99.90
59025;DHT22;44806;48.008;13.666;2023-12-20T02:30:12;3.80;99.90
59025;DHT22;44806;48.008;13.666;2023-12-20T02:32:39;3.80;99.90
59025;DHT22;44806;48.008;13.666;2023-12-20T02:35:06;3.80;99.90
59025;DHT22;44806;48.008;13.666;2023-12-20T02:37:33;3.70;99.90
59025;DHT22;44806;48.008;13.666;2023-12-20T02:40:02;3.70;99.90
59025;DHT22;44806;48.008;13.666;2023-12-20T02:42:30;3.70;99.90
59025;DHT22;44806;48.008;13.666;2023-12-20T02:44:56;3.70;99.90
59025;DHT22;44806;48.008;13.666;2023-12-20T02:47:23;3.60;99.90
59025;DHT22;44806;48.008;13.666;2023-12-20T02:49:50;3.70;99.90
59025;DHT22;44806;48.008;13.666;2023-12-20T02:52:18;3.70;99.90
59025;DHT22;44806;48.008;13.666;2023-12-20T02:54:45;3.60;99.90
59025;DHT22;44806;48.008;13.666;2023-12-20T02:57:13;3.60;99.90
59025;DHT22;44806;48.008;13.666;2023-12-20T02:59:40;3.60;99.90
59025;DHT22;44806;48.008;13.666;2023-12-20T03:02:07;3.60;99.90
59025;DHT22;44806;48.008;13.666;2023-12-20T03:04:34;3.60;99.90
59025;DHT22;44806;48.008;13.666;2023-12-20T03:07:01;3.50;99.90
59025;DHT22;44806;48.008;13.666;2023-12-20T03:09:28;3.50;99.90
59025;DHT22;44806;48.008;13.666;2023-12-20T03:11:54;3.40;99.90
59025;DHT22;44806;48.008;13.666;2023-12-20T03:14:23;3.40;99.90
59025;DHT22;44806;48.008;13.666;2023-12-20T03:16:50;3.40;99.90
59025;DHT22;44806;48.008;13.666;2023-12-20T03:19:18;3.30;99.90
59025;DHT22;44806;48.008;13.666;2023-12-20T03:21:45;3.30;99.90
59025;DHT22;44806;48.008;13.666;2023-12-20T03:24:12;3.20;99.90
59025;DHT22;44806;48.008;13.666;2023-12-20T03:26:39;3.30;99.90
59025;DHT22;44806;48.008;13.666;2023-12-20T03:29:06;3.30;99.90
59025;DHT22;44806;48.008;13.666;2023-12-20T03:34:43;3.30;99.90
59025;DHT22;44806;48.008;13.666;2023-12-20T03:37:10;3.20;99.90
59025;DHT22;44806;48.008;13.666;2023-12-20T03:39:37;3.20;99.90
59025;DHT22;44806;48.008;13.666;2023-12-20T03:42:04;3.20;99.90
59025;DHT22;44806;48.008;13.666;2023-12-20T03:44:31;3.30;99.90
59025;DHT22;44806;48.008;13.666;2023-12-20T03:46:58;3.30;99.90
59025;DHT22;44806;48.008;13.666;2023-12-20T03:49:25;3.30;99.90
59025;DHT22;44806;48.008;13.666;2023-12-20T03:51:53;3.30;99.90
59025;DHT22;44806;48.008;13.666;2023-12-20T03:54:20;3.30;99.90
59025;DHT22;44806;48.008;13.666;2023-12-20T03:56:47;3.30;99.90
59025;DHT22;44806;48.008;13.666;2023-12-20T03:59:13;3.30;99.90
59025;DHT22;44806;48.008;13.666;2023-12-20T04:01:43;3.30;99.90
59025;DHT22;44806;48.008;13.666;2023-12-20T04:04:11;3.30;99.90
59025;DHT22;44806;48.008;13.666;2023-12-20T04:06:38;3.30;99.90
59025;DHT22;44806;48.008;13.666;2023-12-20T04:09:06;3.30;99.90
59025;DHT22;44806;48.008;13.666;2023-12-20T04:11:34;3.30;99.90
59025;DHT22;44806;48.008;13.666;2023-12-20T04:14:01;3.30;99.90
59025;DHT22;44806;48.008;13.666;2023-12-20T04:16:30;3.30;99.90
59025;DHT22;44806;48.008;13.666;2023-12-20T04:18:57;3.40;99.90
59025;DHT22;44806;48.008;13.666;2023-12-20T04:21:24;3.40;99.90
59025;DHT22;44806;48.008;13.666;2023-12-20T04:23:51;3.40;99.90
59025;DHT22;44806;48.008;13.666;2023-12-20T04:26:19;3.50;99.90
59025;DHT22;44806;48.008;13.666;2023-12-20T04:28:46;3.50;99.90
59025;DHT22;44806;48.008;13.666;2023-12-20T04:31:13;3.40;99.90
59025;DHT22;44806;48.008;13.666;2023-12-20T04:33:40;3.40;99.90
59025;DHT22;44806;48.008;13.666;2023-12-20T04:36:07;3.50;99.90
59025;DHT22;44806;48.008;13.666;2023-12-20T04:38:34;3.50;99.90
59025;DHT22;44806;48.008;13.666;2023-12-20T04:41:01;3.50;99.90
59025;DHT22;44806;48.008;13.666;2023-12-20T04:43:30;3.50;99.90
59025;DHT22;44806;48.008;13.666;2023-12-20T04:45:57;3.50;99.90
59025;DHT22;44806;48.008;13.666;2023-12-20T04:48:24;3.60;99.90
59025;DHT22;44806;48.008;13.666;2023-12-20T04:50:50;3.60;99.90
59025;DHT22;44806;48.008;13.666;2023-12-20T04:53:17;3.50;99.90
59025;DHT22;44806;48.008;13.666;2023-12-20T04:55:44;3.60;99.90
59025;DHT22;44806;48.008;13.666;2023-12-20T04:58:11;3.60;99.90
59025;DHT22;44806;48.008;13.666;2023-12-20T05:00:39;3.60;99.90
59025;DHT22;44806;48.008;13.666;2023-12-20T05:03:06;3.70;99.90
59025;DHT22;44806;48.008;13.666;2023-12-20T05:05:33;3.70;99.90
59025;DHT22;44806;48.008;13.666;2023-12-20T05:08:00;3.80;99.90
59025;DHT22;44806;48.008;13.666;2023-12-20T05:10:27;4.10;99.90
59025;DHT22;44806;48.008;13.666;2023-12-20T05:12:54;4.10;99.90
59025;DHT22;44806;48.008;13.666;2023-12-20T05:15:21;4.30;99.90
59025;DHT22;44806;48.008;13.666;2023-12-20T05:17:49;4.70;99.90
59025;DHT22;44806;48.008;13.666;2023-12-20T05:20:16;4.90;99.90
59025;DHT22;44806;48.008;13.666;2023-12-20T05:22:43;5.00;99.90
59025;DHT22;44806;48.008;13.666;2023-12-20T05:25:10;5.20;99.90
59025;DHT22;44806;48.008;13.666;2023-12-20T05:27:37;5.30;99.90
59025;DHT22;44806;48.008;13.666;2023-12-20T05:30:05;5.40;99.90
59025;DHT22;44806;48.008;13.666;2023-12-20T05:32:32;5.70;99.90
59025;DHT22;44806;48.008;13.666;2023-12-20T05:35:00;5.90;99.90
59025;DHT22;44806;48.008;13.666;2023-12-20T05:37:28;5.90;99.90
59025;DHT22;44806;48.008;13.666;2023-12-20T05:39:55;6.00;99.90
59025;DHT22;44806;48.008;13.666;2023-12-20T05:42:22;6.10;99.90
59025;DHT22;44806;48.008;13.666;2023-12-20T05:44:49;6.10;99.90
59025;DHT22;44806;48.008;13.666;2023-12-20T05:47:16;6.10;99.90
59025;DHT22;44806;48.008;13.666;2023-12-20T05:49:43;6.00;99.90
59025;DHT22;44806;48.008;13.666;2023-12-20T05:52:12;5.90;99.90
59025;DHT22;44806;48.008;13.666;2023-12-20T05:54:39;6.10;99.90
59025;DHT22;44806;48.008;13.666;2023-12-20T05:57:05;6.10;99.90
59025;DHT22;44806;48.008;13.666;2023-12-20T05:59:32;6.10;99.90
59025;DHT22;44806;48.008;13.666;2023-12-20T06:01:59;6.00;99.90
59025;DHT22;44806;48.008;13.666;2023-12-20T06:04:26;6.10;99.90
59025;DHT22;44806;48.008;13.666;2023-12-20T06:06:53;6.10;99.90
59025;DHT22;44806;48.008;13.666;2023-12-20T06:09:21;6.10;99.90
59025;DHT22;44806;48.008;13.666;2023-12-20T06:11:48;6.10;99.90
59025;DHT22;44806;48.008;13.666;2023-12-20T06:14:15;6.20;99.90
59025;DHT22;44806;48.008;13.666;2023-12-20T06:16:42;6.20;99.90
59025;DHT22;44806;48.008;13.666;2023-12-20T06:19:09;6.20;99.90
59025;DHT22;44806;48.008;13.666;2023-12-20T06:21:36;6.40;99.90
59025;DHT22;44806;48.008;13.666;2023-12-20T06:24:03;6.50;99.90
59025;DHT22;44806;48.008;13.666;2023-12-20T06:26:31;6.40;99.90
59025;DHT22;44806;48.008;13.666;2023-12-20T06:28:58;6.50;99.90
59025;DHT22;44806;48.008;13.666;2023-12-20T06:31:25;6.60;99.90
59025;DHT22;44806;48.008;13.666;2023-12-20T06:33:52;6.50;99.90
59025;DHT22;44806;48.008;13.666;2023-12-20T06:36:23;6.50;99.90
59025;DHT22;44806;48.008;13.666;2023-12-20T06:38:49;6.50;99.90
59025;DHT22;44806;48.008;13.666;2023-12-20T06:41:15;6.50;99.90
59025;DHT22;44806;48.008;13.666;2023-12-20T06:43:44;6.50;99.90
59025;DHT22;44806;48.008;13.666;2023-12-20T06:46:11;6.50;99.90
59025;DHT22;44806;48.008;13.666;2023-12-20T06:48:38;6.50;99.90
59025;DHT22;44806;48.008;13.666;2023-12-20T06:51:06;6.50;99.90
59025;DHT22;44806;48.008;13.666;2023-12-20T06:53:33;6.50;99.90
59025;DHT22;44806;48.008;13.666;2023-12-20T06:55:59;6.50;99.90
59025;DHT22;44806;48.008;13.666;2023-12-20T06:58:26;6.40;99.90
59025;DHT22;44806;48.008;13.666;2023-12-20T07:00:55;6.40;99.90
59025;DHT22;44806;48.008;13.666;2023-12-20T07:03:21;6.40;99.90
59025;DHT22;44806;48.008;13.666;2023-12-20T07:05:48;6.40;99.90
59025;DHT22;44806;48.008;13.666;2023-12-20T07:08:15;6.40;99.90
59025;DHT22;44806;48.008;13.666;2023-12-20T07:10:42;6.40;99.90
59025;DHT22;44806;48.008;13.666;2023-12-20T07:13:09;6.20;99.90
59025;DHT22;44806;48.008;13.666;2023-12-20T07:15:36;6.20;99.90
59025;DHT22;44806;48.008;13.666;2023-12-20T07:18:05;6.10;99.90
59025;DHT22;44806;48.008;13.666;2023-12-20T07:20:32;6.10;99.90
59025;DHT22;44806;48.008;13.666;2023-12-20T07:22:59;6.10;99.90
59025;DHT22;44806;48.008;13.666;2023-12-20T07:25:26;5.90;99.90
59025;DHT22;44806;48.008;13.666;2023-12-20T07:27:53;5.80;99.90
59025;DHT22;44806;48.008;13.666;2023-12-20T07:30:20;5.80;99.90
59025;DHT22;44806;48.008;13.666;2023-12-20T07:32:47;5.80;99.90
59025;DHT22;44806;48.008;13.666;2023-12-20T07:35:16;5.60;99.90
59025;DHT22;44806;48.008;13.666;2023-12-20T07:37:43;5.60;99.90
59025;DHT22;44806;48.008;13.666;2023-12-20T07:40:10;5.60;99.90
59025;DHT22;44806;48.008;13.666;2023-12-20T07:42:37;5.60;99.90
59025;DHT22;44806;48.008;13.666;2023-12-20T07:45:05;5.60;99.90
59025;DHT22;44806;48.008;13.666;2023-12-20T07:47:31;5.60;99.90
59025;DHT22;44806;48.008;13.666;2023-12-20T07:49:58;5.50;99.90
59025;DHT22;44806;48.008;13.666;2023-12-20T07:52:27;5.50;99.90
59025;DHT22;44806;48.008;13.666;2023-12-20T07:54:54;5.50;99.90
59025;DHT22;44806;48.008;13.666;2023-12-20T07:57:22;5.50;99.90
59025;DHT22;44806;48.008;13.666;2023-12-20T07:59:49;5.50;99.90
59025;DHT22;44806;48.008;13.666;2023-12-20T08:02:16;5.50;99.90
59025;DHT22;44806;48.008;13.666;2023-12-20T08:04:43;5.50;99.90
59025;DHT22;44806;48.008;13.666;2023-12-20T08:07:10;5.50;99.90
59025;DHT22;44806;48.008;13.666;2023-12-20T08:09:38;5.50;99.90
59025;DHT22;44806;48.008;13.666;2023-12-20T08:12:05;5.50;99.90
59025;DHT22;44806;48.008;13.666;2023-12-20T08:14:32;5.50;99.90
59025;DHT22;44806;48.008;13.666;2023-12-20T08:16:59;5.30;99.90
59025;DHT22;44806;48.008;13.666;2023-12-20T08:19:26;5.40;99.90
59025;DHT22;44806;48.008;13.666;2023-12-20T08:21:53;5.40;99.90
59025;DHT22;44806;48.008;13.666;2023-12-20T08:24:20;5.40;99.90
59025;DHT22;44806;48.008;13.666;2023-12-20T08:26:48;5.40;99.90
59025;DHT22;44806;48.008;13.666;2023-12-20T08:29:15;5.40;99.90
59025;DHT22;44806;48.008;13.666;2023-12-20T08:31:42;5.40;99.90
59025;DHT22;44806;48.008;13.666;2023-12-20T08:34:09;5.40;99.90
59025;DHT22;44806;48.008;13.666;2023-12-20T08:36:37;5.30;99.90
59025;DHT22;44806;48.008;13.666;2023-12-20T08:39:04;5.40;99.90
59025;DHT22;44806;48.008;13.666;2023-12-20T08:41:33;5.50;99.90
59025;DHT22;44806;48.008;13.666;2023-12-20T08:44:01;5.40;99.90
59025;DHT22;44806;48.008;13.666;2023-12-20T08:46:28;5.50;99.90
59025;DHT22;44806;48.008;13.666;2023-12-20T08:48:55;5.50;99.90
59025;DHT22;44806;48.008;13.666;2023-12-20T08:51:21;5.50;99.90
59025;DHT22;44806;48.008;13.666;2023-12-20T08:53:51;5.50;99.90
59025;DHT22;44806;48.008;13.666;2023-12-20T08:56:18;5.60;99.90
59025;DHT22;44806;48.008;13.666;2023-12-20T08:58:45;5.60;99.90
59025;DHT22;44806;48.008;13.666;2023-12-20T09:01:14;5.60;99.90
59025;DHT22;44806;48.008;13.666;2023-12-20T09:03:41;5.60;99.90
59025;DHT22;44806;48.008;13.666;2023-12-20T09:06:08;5.60;99.90
59025;DHT22;44806;48.008;13.666;2023-12-20T09:08:35;5.60;99.90
59025;DHT22;44806;48.008;13.666;2023-12-20T09:11:02;5.60;99.90
59025;DHT22;44806;48.008;13.666;2023-12-20T09:13:29;5.60;99.90
59025;DHT22;44806;48.008;13.666;2023-12-20T09:15:57;5.50;99.90
59025;DHT22;44806;48.008;13.666;2023-12-20T09:18:26;5.60;99.90
59025;DHT22;44806;48.008;13.666;2023-12-20T09:20:53;5.60;99.90
59025;DHT22;44806;48.008;13.666;2023-12-20T09:23:19;5.70;99.90
59025;DHT22;44806;48.008;13.666;2023-12-20T09:25:46;5.70;99.90
59025;DHT22;44806;48.008;13.666;2023-12-20T09:28:13;5.70;99.90
59025;DHT22;44806;48.008;13.666;2023-12-20T09:30:40;5.70;99.90
59025;DHT22;44806;48.008;13.666;2023-12-20T09:33:07;5.60;99.90
59025;DHT22;44806;48.008;13.666;2023-12-20T09:35:36;5.60;99.90
59025;DHT22;44806;48.008;13.666;2023-12-20T09:38:03;5.70;99.90
59025;DHT22;44806;48.008;13.666;2023-12-20T09:40:32;5.60;99.90
59025;DHT22;44806;48.008;13.666;2023-12-20T09:43:04;5.60;99.90
59025;DHT22;44806;48.008;13.666;2023-12-20T09:45:31;5.60;99.90
59025;DHT22;44806;48.008;13.666;2023-12-20T09:47:59;5.50;99.90
59025;DHT22;44806;48.008;13.666;2023-12-20T09:50:26;5.50;99.90
59025;DHT22;44806;48.008;13.666;2023-12-20T09:52:57;5.50;99.90
59025;DHT22;44806;48.008;13.666;2023-12-20T09:55:25;5.50;99.90
59025;DHT22;44806;48.008;13.666;2023-12-20T09:57:52;5.60;99.90
59025;DHT22;44806;48.008;13.666;2023-12-20T10:00:19;5.70;99.90
59025;DHT22;44806;48.008;13.666;2023-12-20T10:02:50;5.80;99.90
59025;DHT22;44806;48.008;13.666;2023-12-20T10:05:26;5.80;99.90
59025;DHT22;44806;48.008;13.666;2023-12-20T10:07:53;5.80;99.90
59025;DHT22;44806;48.008;13.666;2023-12-20T10:10:22;5.80;99.90
59025;DHT22;44806;48.008;13.666;2023-12-20T10:13:02;5.80;99.90
59025;DHT22;44806;48.008;13.666;2023-12-20T10:15:29;5.80;99.90
59025;DHT22;44806;48.008;13.666;2023-12-20T10:17:57;5.80;99.90
59025;DHT22;44806;48.008;13.666;2023-12-20T10:20:24;5.80;99.90
59025;DHT22;44806;48.008;13.666;2023-12-20T10:22:52;5.80;99.90
59025;DHT22;44806;48.008;13.666;2023-12-20T10:25:21;5.90;99.90
59025;DHT22;44806;48.008;13.666;2023-12-20T10:27:50;5.90;99.90
59025;DHT22;44806;48.008;13.666;2023-12-20T10:30:17;5.90;99.90
59025;DHT22;44806;48.008;13.666;2023-12-20T10:32:44;5.90;99.90
59025;DHT22;44806;48.008;13.666;2023-12-20T10:35:11;5.90;99.90
59025;DHT22;44806;48.008;13.666;2023-12-20T10:37:38;5.90;99.90
59025;DHT22;44806;48.008;13.666;2023-12-20T10:40:05;5.90;99.90
59025;DHT22;44806;48.008;13.666;2023-12-20T10:42:34;5.80;99.90
59025;DHT22;44806;48.008;13.666;2023-12-20T10:45:03;5.90;99.90
59025;DHT22;44806;48.008;13.666;2023-12-20T10:47:31;5.80;99.90
59025;DHT22;44806;48.008;13.666;2023-12-20T10:49:59;5.90;99.90
59025;DHT22;44806;48.008;13.666;2023-12-20T10:52:28;5.90;99.90
59025;DHT22;44806;48.008;13.666;2023-12-20T10:54:56;5.90;99.90
59025;DHT22;44806;48.008;13.666;2023-12-20T10:57:23;6.00;99.90
59025;DHT22;44806;48.008;13.666;2023-12-20T10:59:55;6.00;99.90
59025;DHT22;44806;48.008;13.666;2023-12-20T11:02:24;6.00;99.90
59025;DHT22;44806;48.008;13.666;2023-12-20T11:04:56;6.10;99.90
59025;DHT22;44806;48.008;13.666;2023-12-20T11:07:31;6.10;99.90
59025;DHT22;44806;48.008;13.666;2023-12-20T11:10:08;6.10;99.90
59025;DHT22;44806;48.008;13.666;2023-12-20T11:12:42;6.20;99.90
59025;DHT22;44806;48.008;13.666;2023-12-20T11:15:13;6.10;99.90
59025;DHT22;44806;48.008;13.666;2023-12-20T11:17:40;6.10;99.90
59025;DHT22;44806;48.008;13.666;2023-12-20T11:20:11;6.10;99.90
59025;DHT22;44806;48.008;13.666;2023-12-20T11:22:40;6.00;99.90
59025;DHT22;44806;48.008;13.666;2023-12-20T11:25:18;6.10;99.90
59025;DHT22;44806;48.008;13.666;2023-12-20T11:28:09;6.00;99.90
59025;DHT22;44806;48.008;13.666;2023-12-20T11:30:46;5.90;99.90
59025;DHT22;44806;48.008;13.666;2023-12-20T11:33:13;5.80;99.90
59025;DHT22;44806;48.008;13.666;2023-12-20T11:35:41;5.90;99.90
59025;DHT22;44806;48.008;13.666;2023-12-20T11:38:08;5.90;99.90
59025;DHT22;44806;48.008;13.666;2023-12-20T11:40:36;5.90;99.90
59025;DHT22;44806;48.008;13.666;2023-12-20T11:43:03;5.90;99.90
59025;DHT22;44806;48.008;13.666;2023-12-20T11:45:31;5.90;99.90
59025;DHT22;44806;48.008;13.666;2023-12-20T11:47:59;5.80;99.90
59025;DHT22;44806;48.008;13.666;2023-12-20T11:50:26;5.90;99.90
59025;DHT22;44806;48.008;13.666;2023-12-20T11:52:54;5.90;99.90
59025;DHT22;44806;48.008;13.666;2023-12-20T11:55:22;5.90;99.90
59025;DHT22;44806;48.008;13.666;2023-12-20T11:57:50;5.80;99.90
59025;DHT22;44806;48.008;13.666;2023-12-20T12:00:18;5.80;99.90
59025;DHT22;44806;48.008;13.666;2023-12-20T12:02:55;5.80;99.90
59025;DHT22;44806;48.008;13.666;2023-12-20T12:05:24;5.80;99.90
59025;DHT22;44806;48.008;13.666;2023-12-20T12:07:51;5.80;99.90
59025;DHT22;44806;48.008;13.666;2023-12-20T12:10:18;5.80;99.90
59025;DHT22;44806;48.008;13.666;2023-12-20T12:12:46;5.80;99.90
59025;DHT22;44806;48.008;13.666;2023-12-20T12:15:14;5.80;99.90
59025;DHT22;44806;48.008;13.666;2023-12-20T12:17:41;5.80;99.90
59025;DHT22;44806;48.008;13.666;2023-12-20T12:20:08;5.80;99.90
59025;DHT22;44806;48.008;13.666;2023-12-20T12:22:37;5.80;99.90
59025;DHT22;44806;48.008;13.666;2023-12-20T12:25:11;5.90;99.90
59025;DHT22;44806;48.008;13.666;2023-12-20T12:27:40;5.90;99.90
59025;DHT22;44806;48.008;13.666;2023-12-20T12:30:09;6.00;99.90
59025;DHT22;44806;48.008;13.666;2023-12-20T12:32:38;5.90;99.90
59025;DHT22;44806;48.008;13.666;2023-12-20T12:35:08;5.90;99.90
59025;DHT22;44806;48.008;13.666;2023-12-20T12:37:38;5.90;99.90
59025;DHT22;44806;48.008;13.666;2023-12-20T12:40:07;5.80;99.90
59025;DHT22;44806;48.008;13.666;2023-12-20T12:42:34;5.90;99.90
59025;DHT22;44806;48.008;13.666;2023-12-20T12:45:01;5.80;99.90
59025;DHT22;44806;48.008;13.666;2023-12-20T12:47:28;5.80;99.90
59025;DHT22;44806;48.008;13.666;2023-12-20T12:49:54;5.90;99.90
59025;DHT22;44806;48.008;13.666;2023-12-20T12:52:21;5.80;99.90
59025;DHT22;44806;48.008;13.666;2023-12-20T12:54:50;5.80;99.90
59025;DHT22;44806;48.008;13.666;2023-12-20T12:57:17;5.70;99.90
59025;DHT22;44806;48.008;13.666;2023-12-20T12:59:44;5.80;99.90
59025;DHT22;44806;48.008;13.666;2023-12-20T13:02:12;5.80;99.90
59025;DHT22;44806;48.008;13.666;2023-12-20T13:04:39;5.90;99.90
59025;DHT22;44806;48.008;13.666;2023-12-20T13:07:07;5.80;99.90
59025;DHT22;44806;48.008;13.666;2023-12-20T13:09:36;5.80;99.90
59025;DHT22;44806;48.008;13.666;2023-12-20T13:12:05;5.70;99.90
59025;DHT22;44806;48.008;13.666;2023-12-20T13:14:34;5.80;99.90
59025;DHT22;44806;48.008;13.666;2023-12-20T13:17:02;5.70;99.90
59025;DHT22;44806;48.008;13.666;2023-12-20T13:19:30;5.80;99.90
59025;DHT22;44806;48.008;13.666;2023-12-20T13:21:57;5.80;99.90
59025;DHT22;44806;48.008;13.666;2023-12-20T13:24:24;5.80;99.90
59025;DHT22;44806;48.008;13.666;2023-12-20T13:26:51;5.70;99.90
59025;DHT22;44806;48.008;13.666;2023-12-20T13:29:20;5.80;99.90
59025;DHT22;44806;48.008;13.666;2023-12-20T13:31:47;5.80;99.90
59025;DHT22;44806;48.008;13.666;2023-12-20T13:34:14;5.80;99.90
59025;DHT22;44806;48.008;13.666;2023-12-20T13:36:43;5.80;99.90
59025;DHT22;44806;48.008;13.666;2023-12-20T13:39:11;5.70;99.90
59025;DHT22;44806;48.008;13.666;2023-12-20T13:41:38;5.80;99.90
59025;DHT22;44806;48.008;13.666;2023-12-20T13:44:05;5.80;99.90
59025;DHT22;44806;48.008;13.666;2023-12-20T13:46:33;5.80;99.90
59025;DHT22;44806;48.008;13.666;2023-12-20T13:49:00;5.80;99.90
59025;DHT22;44806;48.008;13.666;2023-12-20T13:51:27;5.70;99.90
59025;DHT22;44806;48.008;13.666;2023-12-20T13:53:54;5.80;99.90
59025;DHT22;44806;48.008;13.666;2023-12-20T13:56:21;5.70;99.90
59025;DHT22;44806;48.008;13.666;2023-12-20T13:58:48;5.70;99.90
59025;DHT22;44806;48.008;13.666;2023-12-20T14:01:16;5.80;99.90
59025;DHT22;44806;48.008;13.666;2023-12-20T14:03:44;5.80;99.90
59025;DHT22;44806;48.008;13.666;2023-12-20T14:06:11;5.80;99.90
59025;DHT22;44806;48.008;13.666;2023-12-20T14:08:39;5.80;99.90
59025;DHT22;44806;48.008;13.666;2023-12-20T14:11:07;5.80;99.90
59025;DHT22;44806;48.008;13.666;2023-12-20T14:13:34;5.90;99.90
59025;DHT22;44806;48.008;13.666;2023-12-20T14:16:00;5.90;99.90
59025;DHT22;44806;48.008;13.666;2023-12-20T14:18:29;5.90;99.90
59025;DHT22;44806;48.008;13.666;2023-12-20T14:20:57;5.90;99.90
59025;DHT22;44806;48.008;13.666;2023-12-20T14:23:24;5.90;99.90
59025;DHT22;44806;48.008;13.666;2023-12-20T14:25:51;5.90;99.90
59025;DHT22;44806;48.008;13.666;2023-12-20T14:28:19;5.90;99.90
59025;DHT22;44806;48.008;13.666;2023-12-20T14:30:46;5.90;99.90
59025;DHT22;44806;48.008;13.666;2023-12-20T14:33:14;5.90;99.90
59025;DHT22;44806;48.008;13.666;2023-12-20T14:35:41;5.90;99.90
59025;DHT22;44806;48.008;13.666;2023-12-20T14:38:11;5.90;99.90
59025;DHT22;44806;48.008;13.666;2023-12-20T14:40:40;5.90;99.90
59025;DHT22;44806;48.008;13.666;2023-12-20T14:43:07;6.00;99.90
59025;DHT22;44806;48.008;13.666;2023-12-20T14:45:34;5.90;99.90
59025;DHT22;44806;48.008;13.666;2023-12-20T14:48:01;5.90;99.90
59025;DHT22;44806;48.008;13.666;2023-12-20T14:50:28;6.00;99.90
59025;DHT22;44806;48.008;13.666;2023-12-20T14:52:55;6.00;99.90
59025;DHT22;44806;48.008;13.666;2023-12-20T14:55:23;5.90;99.90
59025;DHT22;44806;48.008;13.666;2023-12-20T14:57:52;5.90;99.90
59025;DHT22;44806;48.008;13.666;2023-12-20T15:00:19;5.90;99.90
59025;DHT22;44806;48.008;13.666;2023-12-20T15:02:46;5.90;99.90
59025;DHT22;44806;48.008;13.666;2023-12-20T15:05:13;5.80;99.90
59025;DHT22;44806;48.008;13.666;2023-12-20T15:07:41;5.70;99.90
59025;DHT22;44806;48.008;13.666;2023-12-20T15:10:08;5.50;99.90
59025;DHT22;44806;48.008;13.666;2023-12-20T15:12:36;5.50;99.90
59025;DHT22;44806;48.008;13.666;2023-12-20T15:15:04;5.40;99.90
59025;DHT22;44806;48.008;13.666;2023-12-20T15:17:31;5.30;99.90
59025;DHT22;44806;48.008;13.666;2023-12-20T15:19:58;5.30;99.90
59025;DHT22;44806;48.008;13.666;2023-12-20T15:22:25;5.30;99.90
59025;DHT22;44806;48.008;13.666;2023-12-20T15:24:52;5.30;99.90
59025;DHT22;44806;48.008;13.666;2023-12-20T15:27:20;5.30;99.90
59025;DHT22;44806;48.008;13.666;2023-12-20T15:29:48;5.30;99.90
59025;DHT22;44806;48.008;13.666;2023-12-20T15:32:17;5.20;99.90
59025;DHT22;44806;48.008;13.666;2023-12-20T15:34:44;5.30;99.90